NCAR-RAP Real-Time Weather Data

Output produced by METARs form (06 May 2021  15:24 UTC)
found at http://weather.rap.ucar.edu/surface/
 
KRST 061454Z 32009KT 10SM BKN100 09/04 A3018 RMK AO2 SLPNO T00940044 50005
KRST 061354Z 33010KT 10SM CLR 08/04 A3019 RMK AO2 SLP231 T00780044
KRST 061254Z 31011KT 10SM CLR 06/03 A3019 RMK AO2 SLP231 T00560033
KRST 061154Z 29009KT 9SM CLR 04/02 A3017 RMK AO2 SLP226 7//// T00390022 10056 20028 53001 $
KRST 061054Z 29007KT 4SM BR CLR 03/02 A3016 RMK AO2 SLP224 T00280022 $
KRST 061044Z 29007KT 3SM BR CLR 03/02 A3016 RMK AO2 T00280022 $
KRST 061034Z 29007KT 2SM BR CLR 03/02 A3017 RMK AO2 T00280022 $
KRST 061024Z 27006KT 1 1/4SM BR CLR 03/02 A3016 RMK AO2 T00280022 $
KRST 060954Z 29005KT 2 1/2SM BR FEW055 03/03 A3017 RMK AO2 SLP224 T00330033 $
KRST 060951Z 30005KT 2 1/2SM BR FEW055 03/03 A3017 RMK AO2 $
KRST 060916Z 31005KT 5SM BR SCT019 04/03 A3017 RMK AO2 T00440033 $
KRST 060854Z 33007KT 6SM BR FEW006 SCT010 OVC020 05/04 A3018 RMK AO2 SLP226 T00500039 53005 $
KRST 060839Z 33012KT 7SM BKN006 BKN012 OVC095 05/04 A3018 RMK AO2 CIG 004V010 T00500039 $
KRST 060819Z 33009KT 5SM BR FEW004 BKN060 OVC095 05/04 A3017 RMK AO2 T00500044 $
KRST 060754Z 31006KT 4SM BR OVC055 06/04 A3016 RMK AO2 SLP220 T00560044 $
KRST 060654Z 32003KT 4SM BR FEW003 OVC039 06/04 A3016 RMK AO2 SLP217 T00560044 $
KRST 060641Z 35003KT 4SM BR SCT003 OVC037 06/04 A3016 RMK AO2 T00560044 $
KRST 060621Z 01003KT 3SM BR BKN003 OVC034 06/05 A3016 RMK AO2 T00560050 $
KRST 060610Z 02005KT 4SM BR SCT004 OVC034 06/04 A3016 RMK AO2 T00560044 $
KRST 060554Z 02005KT 5SM BR OVC033 05/04 A3016 RMK AO2 RAE43 SLP220 P0003 6//// T00500044 401500022 58001 $
KRST 060513Z 02007KT 5SM -RA BR SCT004 OVC030 06/04 A3016 RMK AO2 P0001 T00560044 $
KRST 060454Z 01007KT 4SM -RA BR BKN004 OVC034 06/05 A3016 RMK AO2 RAB0356 SLP220 P0003 T00560050 $
KRST 060447Z 02004KT 4SM -RA BR BKN004 BKN008 OVC034 06/05 A3016 RMK AO2 RAB0356 P0003 T00560050 $
KRST 060423Z 01006KT 4SM -RA BR SCT006 SCT011 OVC029 06/05 A3017 RMK AO2 RAB0356 P0001 T00560050 $
KRST 060416Z 36006KT 5SM -RA BR BKN006 OVC029 06/05 A3017 RMK AO2 RAB0356 P0000 T00560050 $
KRST 060354Z 36006KT 6SM BR FEW006 OVC031 06/05 A3017 RMK AO2 RAB22E51 SLP223 P0001 T00610050 $
KRST 060254Z A3016 RMK AO2 SLPNO 6//// PNO $
KRST 060154Z 06/05 A3015 RMK AO2 RAB27RAEMM SLP219 P0000 T00610050 $
KRST 060054Z 36007KT 6SM -RA BR BKN039 OVC049 07/05 A3015 RMK AO2 SLP218 P0003 T00670050